Weather at Straffordville Airport

Public forecast

Using degrees Celsius for public forecast. Weather courtesy of forecast.io.

Closest aviation weather report (METAR) to Straffordville Airport

Closest report is London Airport, 23.2 nm (43.0 km) NW. Retrieved 2022/08/15 09:00 UTC (11 minutes ago):

CYXU 150900Z 01006KT 15SM BKN120 15/11 A2999 RMK AC5 SLP157 DENSITY ALT 1100FT

Closest aviation forecast (TAF) to Straffordville Airport

Closest forecast is London Airport, 23.2 nm (43.0 km) NW. Retrieved 2022/08/15 06:42 UTC (2 hours ago):

TAF CYXU 150540Z 1506/1606 VRB03KT P6SM BKN110 TEMPO 1506/1518 SCT110 BECMG 1510/1512 06010KT FM151800 07010KT P6SM BKN070 TEMPO 1518/1524 P6SM -SHRA FM160000 08008KT P6SM BKN070 BECMG 1601/1603 03008KT RMK NXT FCST BY 151200Z